Time,TemperatureF,DewpointF,PressureIn,WindDirection,WindDirectionDegrees,WindSpeedMPH,WindSpeedGustMPH,Humidity,HourlyPrecipIn,Conditions,Clouds,dailyrainin,SoftwareType,DateUTC
2013-07-21 00:10:00,67.5,59.0,29.77,NNE,32,0.0,0.0,75,0.00,,,0.00,weatherlink.com 1.10,2013-07-21 04:10:00,
2013-07-21 00:25:00,66.7,59.0,29.77,NNE,32,0.0,0.0,77,0.00,,,0.00,weatherlink.com 1.10,2013-07-21 04:25:00,
2013-07-21 00:40:00,65.8,59.0,29.77,NNE,32,0.0,0.0,79,0.00,,,0.00,weatherlink.com 1.10,2013-07-21 04:40:00,
2013-07-21 00:55:00,65.1,58.0,29.78,NNE,32,0.0,0.0,79,0.00,,,0.00,weatherlink.com 1.10,2013-07-21 04:55:00,
2013-07-21 01:10:00,64.6,58.0,29.78,NNE,32,0.0,0.0,80,0.00,,,0.00,weatherlink.com 1.10,2013-07-21 05:10:00,
2013-07-21 01:25:00,64.2,59.0,29.79,NNE,32,0.0,0.0,82,0.00,,,0.00,weatherlink.com 1.10,2013-07-21 05:25:00,
2013-07-21 01:40:00,63.8,58.0,29.80,NNE,32,0.0,0.0,82,0.00,,,0.00,weatherlink.com 1.10,2013-07-21 05:40:00,
2013-07-21 01:55:00,63.8,59.0,29.80,NNE,32,0.0,0.0,83,0.00,,,0.00,weatherlink.com 1.10,2013-07-21 05:55:00,
2013-07-21 02:10:00,64.3,59.0,29.80,NNE,32,0.0,0.0,83,0.00,,,0.00,weatherlink.com 1.10,2013-07-21 06:10:00,
2013-07-21 02:25:00,64.0,59.0,29.80,NNE,32,0.0,0.0,84,0.00,,,0.00,weatherlink.com 1.10,2013-07-21 06:25:00,
2013-07-21 02:40:00,63.8,59.0,29.81,NNE,32,0.0,0.0,84,0.00,,,0.00,weatherlink.com 1.10,2013-07-21 06:40:00,
2013-07-21 02:55:00,64.0,60.0,29.81,NNE,32,0.0,0.0,85,0.00,,,0.00,weatherlink.com 1.10,2013-07-21 06:55:00,
2013-07-21 03:10:00,64.0,60.0,29.81,NNE,32,0.0,0.0,85,0.00,,,0.00,weatherlink.com 1.10,2013-07-21 07:10:00,
2013-07-21 03:25:00,64.0,60.0,29.82,NNE,32,0.0,0.0,85,0.00,,,0.00,weatherlink.com 1.10,2013-07-21 07:25:00,
2013-07-21 03:40:00,63.8,60.0,29.82,NNE,32,0.0,0.0,86,0.00,,,0.00,weatherlink.com 1.10,2013-07-21 07:40:00,
2013-07-21 03:55:00,63.2,59.0,29.82,NNE,32,0.0,0.0,87,0.00,,,0.00,weatherlink.com 1.10,2013-07-21 07:55:00,
2013-07-21 04:10:00,62.6,59.0,29.82,NNE,32,0.0,0.0,88,0.00,,,0.00,weatherlink.com 1.10,2013-07-21 08:10:00,
2013-07-21 04:25:00,61.8,59.0,29.83,NNE,32,0.0,0.0,89,0.00,,,0.00,weatherlink.com 1.10,2013-07-21 08:25:00,
2013-07-21 04:40:00,61.4,58.0,29.83,NNE,32,0.0,0.0,89,0.00,,,0.00,weatherlink.com 1.10,2013-07-21 08:40:00,
2013-07-21 04:55:00,61.1,58.0,29.84,NNE,32,0.0,0.0,90,0.00,,,0.00,weatherlink.com 1.10,2013-07-21 08:55:00,
2013-07-21 05:11:00,60.9,58.0,29.84,NNE,32,0.0,0.0,91,0.00,,,0.00,weatherlink.com 1.10,2013-07-21 09:11:00,
2013-07-21 05:26:00,60.8,58.0,29.84,NNE,32,0.0,0.0,91,0.00,,,0.00,weatherlink.com 1.10,2013-07-21 09:26:00,
2013-07-21 05:41:00,60.7,58.0,29.85,NNE,32,0.0,0.0,92,0.00,,,0.00,weatherlink.com 1.10,2013-07-21 09:41:00,
2013-07-21 05:56:00,60.4,58.0,29.85,NNE,32,0.0,0.0,92,0.00,,,0.00,weatherlink.com 1.10,2013-07-21 09:56:00,
2013-07-21 06:11:00,60.5,59.0,29.86,NNE,32,0.0,0.0,93,0.00,,,0.00,weatherlink.com 1.10,2013-07-21 10:11:00,
2013-07-21 06:26:00,60.4,58.0,29.87,NNE,32,0.0,0.0,92,0.00,,,0.00,weatherlink.com 1.10,2013-07-21 10:26:00,
2013-07-21 06:42:00,60.5,58.0,29.87,NNE,32,0.0,0.0,92,0.00,,,0.00,weatherlink.com 1.10,2013-07-21 10:42:00,
2013-07-21 06:56:00,60.6,58.0,29.88,NNE,32,0.0,0.0,92,0.00,,,0.00,weatherlink.com 1.10,2013-07-21 10:56:00,
2013-07-21 07:11:00,60.9,59.0,29.88,NNE,32,0.0,0.0,92,0.00,,,0.00,weatherlink.com 1.10,2013-07-21 11:11:00,
2013-07-21 07:26:00,61.4,59.0,29.89,NNE,32,0.0,0.0,91,0.00,,,0.00,weatherlink.com 1.10,2013-07-21 11:26:00,
2013-07-21 07:41:00,62.6,59.0,29.89,NNE,32,0.0,0.0,89,0.00,,,0.00,weatherlink.com 1.10,2013-07-21 11:41:00,
2013-07-21 07:56:00,63.8,60.0,29.89,NNE,32,0.0,0.0,86,0.00,,,0.00,weatherlink.com 1.10,2013-07-21 11:56:00,
2013-07-21 08:11:00,65.2,60.0,29.90,NNE,32,0.0,0.0,84,0.00,,,0.00,weatherlink.com 1.10,2013-07-21 12:11:00,
2013-07-21 08:26:00,66.2,60.0,29.90,NNE,32,0.0,0.0,81,0.00,,,0.00,weatherlink.com 1.10,2013-07-21 12:26:00,
2013-07-21 08:41:00,67.3,60.0,29.90,NNE,32,0.0,0.0,77,0.00,,,0.00,weatherlink.com 1.10,2013-07-21 12:41:00,
2013-07-21 08:56:00,68.3,61.0,29.91,North,9,0.0,0.0,77,0.00,,,0.00,weatherlink.com 1.10,2013-07-21 12:56:00,
2013-07-21 09:11:00,69.0,61.0,29.91,WNW,303,0.0,0.0,76,0.00,,,0.00,weatherlink.com 1.10,2013-07-21 13:11:00,
2013-07-21 09:26:00,70.3,61.0,29.91,NW,304,0.0,0.0,73,0.00,,,0.00,weatherlink.com 1.10,2013-07-21 13:26:00,
2013-07-21 09:41:00,71.4,60.0,29.91,SSW,199,0.0,2.0,68,0.00,,,0.00,weatherlink.com 1.10,2013-07-21 13:41:00,
2013-07-21 09:57:00,72.2,61.0,29.91,SW,219,0.0,2.0,67,0.00,,,0.00,weatherlink.com 1.10,2013-07-21 13:57:00,
2013-07-21 10:11:00,73.1,61.0,29.91,WSW,251,0.0,1.0,65,0.00,,,0.00,weatherlink.com 1.10,2013-07-21 14:11:00,
2013-07-21 10:26:00,73.9,61.0,29.91,WSW,257,0.0,5.0,65,0.00,,,0.00,weatherlink.com 1.10,2013-07-21 14:26:00,
2013-07-21 10:41:00,74.6,61.0,29.91,NW,313,0.0,3.0,62,0.00,,,0.00,weatherlink.com 1.10,2013-07-21 14:41:00,
2013-07-21 10:56:00,74.8,62.0,29.91,SW,225,0.0,3.0,64,0.00,,,0.00,weatherlink.com 1.10,2013-07-21 14:56:00,
2013-07-21 11:11:00,75.0,61.0,29.91,SW,217,0.0,1.0,63,0.00,,,0.00,weatherlink.com 1.10,2013-07-21 15:11:00,
2013-07-21 11:26:00,75.1,62.0,29.91,SW,219,0.0,3.0,63,0.00,,,0.00,weatherlink.com 1.10,2013-07-21 15:26:00,
2013-07-21 11:41:00,74.7,62.0,29.91,SSW,206,0.0,1.0,65,0.00,,,0.00,weatherlink.com 1.10,2013-07-21 15:41:00,
2013-07-21 11:57:00,74.9,62.0,29.91,SW,225,0.0,2.0,65,0.00,,,0.00,weatherlink.com 1.10,2013-07-21 15:57:00,
2013-07-21 12:11:00,75.4,62.0,29.91,SW,225,0.0,1.0,64,0.00,,,0.00,weatherlink.com 1.10,2013-07-21 16:11:00,
2013-07-21 12:26:00,76.0,63.0,29.91,NE,44,0.0,3.0,64,0.00,,,0.00,weatherlink.com 1.10,2013-07-21 16:26:00,
2013-07-21 12:41:00,75.8,62.0,29.91,NNE,22,0.0,3.0,63,0.00,,,0.00,weatherlink.com 1.10,2013-07-21 16:41:00,
2013-07-21 12:57:00,75.6,63.0,29.91,NNE,22,0.0,0.0,65,0.00,,,0.00,weatherlink.com 1.10,2013-07-21 16:57:00,
2013-07-21 13:12:00,76.2,64.0,29.91,North,355,0.0,3.0,67,0.00,,,0.00,weatherlink.com 1.10,2013-07-21 17:12:00,
2013-07-21 13:27:00,76.7,63.0,29.91,North,11,0.0,4.0,63,0.00,,,0.00,weatherlink.com 1.10,2013-07-21 17:27:00,
2013-07-21 13:42:00,76.4,63.0,29.91,North,11,0.0,0.0,63,0.00,,,0.00,weatherlink.com 1.10,2013-07-21 17:42:00,
2013-07-21 13:57:00,76.6,64.0,29.90,North,11,0.0,0.0,65,0.00,,,0.00,weatherlink.com 1.10,2013-07-21 17:57:00,
2013-07-21 14:12:00,78.7,63.0,29.90,SW,222,0.0,4.0,59,0.00,,,0.00,weatherlink.com 1.10,2013-07-21 18:12:00,
2013-07-21 14:27:00,79.6,64.0,29.90,NNE,24,2.0,3.0,60,0.00,,,0.00,weatherlink.com 1.10,2013-07-21 18:27:00,
2013-07-21 14:42:00,79.3,65.0,29.90,WNW,302,0.0,4.0,61,0.00,,,0.00,weatherlink.com 1.10,2013-07-21 18:42:00,
2013-07-21 14:57:00,79.8,64.0,29.90,NNE,19,0.0,2.0,58,0.00,,,0.00,weatherlink.com 1.10,2013-07-21 18:57:00,
2013-07-21 15:12:00,77.2,62.0,29.90,North,10,0.0,2.0,59,0.00,,,0.00,weatherlink.com 1.10,2013-07-21 19:12:00,
2013-07-21 15:27:00,74.9,62.0,29.90,NE,34,0.0,6.0,65,0.00,,,0.00,weatherlink.com 1.10,2013-07-21 19:27:00,
2013-07-21 15:42:00,75.3,63.0,29.90,NNE,27,0.0,0.0,66,0.00,,,0.00,weatherlink.com 1.10,2013-07-21 19:42:00,
2013-07-21 15:57:00,77.5,64.0,29.90,NNE,22,0.0,0.0,64,0.00,,,0.00,weatherlink.com 1.10,2013-07-21 19:57:00,
2013-07-21 16:12:00,78.0,63.0,29.90,NNE,22,0.0,0.0,60,0.00,,,0.00,weatherlink.com 1.10,2013-07-21 20:12:00,
2013-07-21 16:27:00,79.2,63.0,29.90,NNE,22,0.0,1.0,58,0.00,,,0.00,weatherlink.com 1.10,2013-07-21 20:27:00,
2013-07-21 16:42:00,79.4,64.0,29.91,NE,42,1.0,4.0,60,0.00,,,0.00,weatherlink.com 1.10,2013-07-21 20:42:00,
2013-07-21 16:57:00,79.1,63.0,29.90,NNW,329,0.0,3.0,59,0.00,,,0.00,weatherlink.com 1.10,2013-07-21 20:57:00,
2013-07-21 17:12:00,78.9,63.0,29.90,NNW,329,0.0,1.0,59,0.00,,,0.00,weatherlink.com 1.10,2013-07-21 21:12:00,
2013-07-21 17:27:00,79.0,63.0,29.90,WNW,293,0.0,1.0,59,0.00,,,0.00,weatherlink.com 1.10,2013-07-21 21:27:00,
2013-07-21 17:42:00,78.0,63.0,29.90,WNW,294,0.0,2.0,61,0.00,,,0.00,weatherlink.com 1.10,2013-07-21 21:42:00,
2013-07-21 17:57:00,77.6,63.0,29.90,West,274,0.0,2.0,62,0.00,,,0.00,weatherlink.com 1.10,2013-07-21 21:57:00,
2013-07-21 18:12:00,76.8,62.0,29.90,NNW,343,0.0,0.0,61,0.00,,,0.00,weatherlink.com 1.10,2013-07-21 22:12:00,
2013-07-21 18:27:00,76.1,63.0,29.91,West,279,0.0,0.0,63,0.00,,,0.00,weatherlink.com 1.10,2013-07-21 22:27:00,
2013-07-21 18:42:00,76.3,63.0,29.91,West,279,0.0,0.0,64,0.00,,,0.00,weatherlink.com 1.10,2013-07-21 22:42:00,
2013-07-21 18:57:00,75.3,64.0,29.91,West,279,0.0,0.0,67,0.00,,,0.00,weatherlink.com 1.10,2013-07-21 22:57:00,
2013-07-21 19:12:00,74.0,62.0,29.91,West,279,0.0,0.0,67,0.00,,,0.00,weatherlink.com 1.10,2013-07-21 23:12:00,
2013-07-21 19:27:00,73.1,62.0,29.91,West,279,0.0,0.0,69,0.00,,,0.00,weatherlink.com 1.10,2013-07-21 23:27:00,
2013-07-21 19:42:00,72.3,62.0,29.92,WNW,283,0.0,0.0,71,0.00,,,0.00,weatherlink.com 1.10,2013-07-21 23:42:00,
2013-07-21 19:57:00,71.7,63.0,29.92,WNW,282,0.0,0.0,73,0.00,,,0.00,weatherlink.com 1.10,2013-07-21 23:57:00,
2013-07-21 20:12:00,70.7,62.0,29.92,WNW,282,0.0,0.0,75,0.00,,,0.00,weatherlink.com 1.10,2013-07-22 00:12:00,
2013-07-21 20:27:00,69.7,61.0,29.92,WNW,282,0.0,0.0,75,0.00,,,0.00,weatherlink.com 1.10,2013-07-22 00:27:00,
2013-07-21 20:42:00,68.6,62.0,29.93,WNW,282,0.0,0.0,78,0.00,,,0.00,weatherlink.com 1.10,2013-07-22 00:42:00,
2013-07-21 20:57:00,67.9,62.0,29.94,WNW,282,0.0,0.0,80,0.00,,,0.00,weatherlink.com 1.10,2013-07-22 00:57:00,
2013-07-21 21:12:00,67.1,61.0,29.95,WNW,282,0.0,0.0,82,0.00,,,0.00,weatherlink.com 1.10,2013-07-22 01:12:00,
2013-07-21 21:27:00,66.3,61.0,29.95,WNW,282,0.0,0.0,82,0.00,,,0.00,weatherlink.com 1.10,2013-07-22 01:27:00,
2013-07-21 21:42:00,65.6,61.0,29.95,WNW,282,0.0,0.0,85,0.00,,,0.00,weatherlink.com 1.10,2013-07-22 01:42:00,
2013-07-21 21:57:00,64.9,61.0,29.96,WNW,282,0.0,0.0,86,0.00,,,0.00,weatherlink.com 1.10,2013-07-22 01:57:00,
2013-07-21 22:12:00,64.4,61.0,29.96,WNW,282,0.0,0.0,87,0.00,,,0.00,weatherlink.com 1.10,2013-07-22 02:12:00,
2013-07-21 22:27:00,64.1,60.0,29.97,WNW,282,0.0,0.0,87,0.00,,,0.00,weatherlink.com 1.10,2013-07-22 02:27:00,
2013-07-21 22:42:00,63.9,60.0,29.98,WNW,282,0.0,0.0,88,0.00,,,0.00,weatherlink.com 1.10,2013-07-22 02:42:00,
2013-07-21 22:57:00,63.4,60.0,29.98,WNW,282,0.0,0.0,89,0.00,,,0.00,weatherlink.com 1.10,2013-07-22 02:57:00,
2013-07-21 23:12:00,63.1,60.0,29.98,WNW,282,0.0,0.0,89,0.00,,,0.00,weatherlink.com 1.10,2013-07-22 03:12:00,
2013-07-21 23:27:00,62.7,60.0,29.98,WNW,282,0.0,0.0,90,0.00,,,0.00,weatherlink.com 1.10,2013-07-22 03:27:00,
2013-07-21 23:42:00,62.3,59.0,29.98,WNW,282,0.0,0.0,90,0.00,,,0.00,weatherlink.com 1.10,2013-07-22 03:42:00,
2013-07-21 23:57:00,62.0,59.0,29.99,WNW,282,0.0,0.0,91,0.00,,,0.00,weatherlink.com 1.10,2013-07-22 03:57:00,